createdAt,value
2019-02-22T00:00:09.286Z,16.97
2019-02-22T00:03:10.152Z,17.40
2019-02-22T00:06:10.708Z,18.67
2019-02-22T00:09:11.264Z,18.57
2019-02-22T00:12:11.631Z,18.57
2019-02-22T00:15:11.990Z,18.23
2019-02-22T00:18:12.549Z,18.50
2019-02-22T00:21:20.498Z,18.57
2019-02-22T00:24:20.896Z,16.53
2019-02-22T00:27:21.985Z,16.50
2019-02-22T00:30:23.294Z,16.30
2019-02-22T00:33:23.647Z,15.37
2019-02-22T00:36:24.136Z,18.10
2019-02-22T00:39:25.023Z,16.87
2019-02-22T00:42:25.919Z,17.77
2019-02-22T00:45:26.658Z,18.10
2019-02-22T00:48:27.085Z,21.40
2019-02-22T00:51:27.507Z,22.70
2019-02-22T00:54:28.331Z,26.63
2019-02-22T00:57:28.834Z,22.33
2019-02-22T01:00:29.957Z,22.20
2019-02-22T01:03:30.386Z,23.97
2019-02-22T01:06:30.716Z,20.27
2019-02-22T01:09:31.285Z,21.00
2019-02-22T01:12:32.098Z,19.97
2019-02-22T01:15:32.373Z,16.57
2019-02-22T01:18:33.005Z,20.27
2019-02-22T01:21:33.386Z,19.47
2019-02-22T01:24:34.072Z,17.23
2019-02-22T01:27:34.253Z,22.13
2019-02-22T01:30:35.273Z,18.53
2019-02-22T01:33:35.601Z,18.50
2019-02-22T01:36:35.869Z,19.90
2019-02-22T01:39:36.377Z,19.23
2019-02-22T01:42:36.874Z,19.93
2019-02-22T01:45:37.398Z,21.43
2019-02-22T01:48:37.857Z,22.40
2019-02-22T01:51:38.355Z,22.30
2019-02-22T01:54:38.689Z,23.27
2019-02-22T01:57:39.510Z,23.87
2019-02-22T02:00:40.565Z,22.47
2019-02-22T02:03:41.618Z,26.33
2019-02-22T02:06:42.764Z,22.40
2019-02-22T02:09:43.480Z,25.23
2019-02-22T02:12:44.324Z,23.90
2019-02-22T02:15:44.753Z,21.93
2019-02-22T02:18:45.021Z,25.97
2019-02-22T02:21:45.486Z,23.27
2019-02-22T02:24:45.916Z,25.43
2019-02-22T02:27:46.717Z,23.70
2019-02-22T02:30:47.043Z,22.57
2019-02-22T02:33:47.542Z,25.23
2019-02-22T02:36:48.023Z,22.53
2019-02-22T02:39:48.842Z,23.43
2019-02-22T02:42:49.317Z,21.87
2019-02-22T02:45:49.963Z,24.53
2019-02-22T02:48:50.773Z,23.03
2019-02-22T02:51:51.061Z,25.23
2019-02-22T02:54:51.523Z,23.17
2019-02-22T02:57:52.816Z,23.17
2019-02-22T03:00:53.495Z,23.57
2019-02-22T03:03:53.741Z,22.80
2019-02-22T03:07:13.491Z,23.33
2019-02-22T03:10:14.578Z,24.73
2019-02-22T03:13:15.811Z,24.80
2019-02-22T03:16:04.426Z,23.27
2019-02-22T03:19:12.374Z,24.50
2019-02-22T03:22:12.895Z,23.87
2019-02-22T03:25:13.313Z,22.80
2019-02-22T03:28:13.792Z,23.13
2019-02-22T03:31:14.884Z,23.90
2019-02-22T03:34:15.296Z,22.10
2019-02-22T03:37:16.187Z,25.77
2019-02-22T03:40:17.435Z,22.50
2019-02-22T03:43:18.591Z,23.70
2019-02-22T03:46:19.593Z,23.00
2019-02-22T03:49:20.007Z,25.10
2019-02-22T03:52:24.779Z,23.33
2019-02-22T03:55:25.678Z,21.83
2019-02-22T03:58:26.034Z,23.63
2019-02-22T04:01:26.306Z,23.23
2019-02-22T04:04:26.764Z,21.07
2019-02-22T04:07:27.534Z,23.60
2019-02-22T04:10:27.919Z,23.90
2019-02-22T04:13:28.414Z,25.07
2019-02-22T04:16:28.800Z,26.90
2019-02-22T04:19:29.075Z,22.63
2019-02-22T04:22:29.330Z,23.47
2019-02-22T04:25:29.714Z,27.40
2019-02-22T04:28:30.345Z,22.47
2019-02-22T04:31:31.534Z,24.70
2019-02-22T04:34:32.845Z,23.33
2019-02-22T04:37:33.146Z,22.63
2019-02-22T04:40:33.737Z,22.77
2019-02-22T04:43:34.015Z,26.63
2019-02-22T04:46:35.342Z,26.77
2019-02-22T04:49:23.884Z,26.00
2019-02-22T04:52:31.739Z,26.67
2019-02-22T04:55:32.782Z,27.03
2019-02-22T04:58:33.613Z,24.83
2019-02-22T05:01:34.354Z,25.10
2019-02-22T05:04:35.341Z,29.70
2019-02-22T05:07:35.837Z,26.47
2019-02-22T05:10:36.334Z,27.03
2019-02-22T05:13:36.969Z,26.33
2019-02-22T05:16:37.666Z,26.77
2019-02-22T05:19:26.270Z,25.33
2019-02-22T05:22:27.205Z,26.00
2019-02-22T05:25:27.598Z,25.67
2019-02-22T05:28:28.326Z,26.17
2019-02-22T05:31:28.778Z,27.33
2019-02-22T05:34:29.244Z,29.43
2019-02-22T05:37:30.490Z,33.63
2019-02-22T05:40:31.118Z,32.37
2019-02-22T05:43:31.754Z,29.20
2019-02-22T05:46:33.026Z,32.63
2019-02-22T05:49:33.450Z,30.97
2019-02-22T05:52:33.723Z,28.53
2019-02-22T05:55:34.790Z,31.77
2019-02-22T05:58:35.799Z,32.03
2019-02-22T06:01:36.824Z,30.63
2019-02-22T06:04:37.562Z,32.97
2019-02-22T06:07:38.354Z,30.43
2019-02-22T06:10:38.989Z,27.20
2019-02-22T06:13:39.674Z,28.57
2019-02-22T06:16:41.875Z,28.63
2019-02-22T06:19:42.698Z,28.97
2019-02-22T06:22:31.288Z,29.87
2019-02-22T06:28:46.689Z,26.30
2019-02-22T06:31:47.129Z,27.77
2019-02-22T06:34:47.531Z,30.53
2019-02-22T06:37:48.230Z,32.57
2019-02-22T06:40:48.664Z,33.37
2019-02-22T06:43:49.293Z,36.83
2019-02-22T06:46:49.822Z,37.67
2019-02-22T06:49:50.660Z,37.83
2019-02-22T06:52:51.293Z,36.97
2019-02-22T06:55:51.818Z,34.37
2019-02-22T06:58:52.401Z,36.40
2019-02-22T07:01:52.824Z,42.93
2019-02-22T07:04:53.170Z,42.07
2019-02-22T07:07:53.613Z,45.10
2019-02-22T07:10:55.808Z,38.33
2019-02-22T07:13:56.333Z,43.00
2019-02-22T07:16:56.998Z,42.17
2019-02-22T07:19:57.828Z,45.97
2019-02-22T07:22:58.621Z,47.27
2019-02-22T07:25:59.242Z,49.47
2019-02-22T07:28:59.674Z,45.97
2019-02-22T07:32:05.826Z,45.27
2019-02-22T07:35:02.707Z,47.43
2019-02-22T07:38:03.478Z,50.53
2019-02-22T07:41:03.752Z,43.30
2019-02-22T07:44:04.211Z,46.23
2019-02-22T07:47:04.592Z,45.30
2019-02-22T07:50:05.278Z,48.70
2019-02-22T07:53:05.929Z,47.33
2019-02-22T07:56:06.451Z,55.73
2019-02-22T07:59:07.281Z,55.17
2019-02-22T08:02:08.041Z,53.83
2019-02-22T08:05:09.276Z,56.77
2019-02-22T08:08:10.114Z,53.53
2019-02-22T08:11:10.929Z,57.33
2019-02-22T08:14:11.395Z,56.03
2019-02-22T08:17:14.630Z,49.27
2019-02-22T08:20:14.601Z,55.47
2019-02-22T08:23:15.157Z,56.63
2019-02-22T08:26:15.525Z,50.63
2019-02-22T08:29:15.855Z,55.33
2019-02-22T08:32:16.181Z,60.53
2019-02-22T08:35:16.897Z,57.13
2019-02-22T08:38:17.580Z,56.53
2019-02-22T08:41:18.126Z,56.93
2019-02-22T08:44:18.572Z,58.77
2019-02-22T08:47:18.952Z,53.73
2019-02-22T08:50:19.206Z,60.83
2019-02-22T08:53:19.942Z,62.93
2019-02-22T08:56:20.205Z,62.77
2019-02-22T08:59:20.629Z,57.07
2019-02-22T09:02:21.009Z,58.27
2019-02-22T09:05:21.385Z,66.07
2019-02-22T09:08:22.638Z,62.27
2019-02-22T09:11:23.873Z,59.83
2019-02-22T09:14:24.739Z,62.53
2019-02-22T09:17:25.185Z,61.87
2019-02-22T09:20:25.998Z,58.03
2019-02-22T09:23:26.538Z,62.13
2019-02-22T09:26:27.212Z,59.23
2019-02-22T09:29:27.860Z,55.57
2019-02-22T09:32:28.618Z,53.77
2019-02-22T09:35:29.047Z,57.70
2019-02-22T09:38:30.303Z,57.63
2019-02-22T09:41:30.888Z,59.67
2019-02-22T09:44:31.970Z,55.13
2019-02-22T09:47:32.363Z,55.10
2019-02-22T09:50:33.646Z,57.53
2019-02-22T09:53:33.901Z,47.67
2019-02-22T09:56:34.300Z,48.23
2019-02-22T09:59:34.740Z,46.43
2019-02-22T10:02:35.306Z,49.33
2019-02-22T10:05:35.950Z,45.33
2019-02-22T10:08:36.313Z,42.03
2019-02-22T10:11:36.653Z,45.03
2019-02-22T10:14:37.185Z,40.17
2019-02-22T10:17:37.955Z,37.17
2019-02-22T10:20:38.635Z,38.33
2019-02-22T10:23:39.107Z,37.63
2019-02-22T10:26:39.863Z,36.87
2019-02-22T10:29:40.905Z,37.17
2019-02-22T10:32:41.359Z,33.67
2019-02-22T10:35:42.244Z,34.10
2019-02-22T10:38:42.810Z,34.27
2019-02-22T10:41:43.322Z,31.73
2019-02-22T10:44:43.875Z,34.13
2019-02-22T10:47:44.326Z,31.70
2019-02-22T10:50:45.518Z,30.43
2019-02-22T10:53:45.942Z,29.30
2019-02-22T10:56:46.321Z,27.37
2019-02-22T10:59:46.793Z,23.70
2019-02-22T11:02:47.313Z,22.60
2019-02-22T11:05:48.366Z,23.80
2019-02-22T11:08:50.786Z,25.27
2019-02-22T11:11:51.313Z,24.63
2019-02-22T11:14:52.130Z,22.87
2019-02-22T11:17:52.837Z,20.93
2019-02-22T11:20:53.910Z,24.20
2019-02-22T11:23:54.521Z,19.93
2019-02-22T11:26:55.588Z,17.27
2019-02-22T11:29:57.233Z,15.88
2019-02-22T11:35:42.514Z,14.13
2019-02-22T11:38:43.906Z,16.23
2019-02-22T11:41:45.157Z,16.55
2019-02-22T11:44:46.700Z,16.20
2019-02-22T11:47:48.200Z,17.65
2019-02-22T11:50:49.814Z,18.48
2019-02-22T11:53:51.021Z,17.80
2019-02-22T11:56:51.283Z,17.23
2019-02-22T11:59:52.446Z,17.77
2019-02-22T12:02:53.493Z,17.70
2019-02-22T12:05:53.962Z,17.67
2019-02-22T12:08:55.154Z,18.33
2019-02-22T12:11:56.007Z,19.10
2019-02-22T12:14:56.904Z,19.07
2019-02-22T12:17:58.142Z,19.17
2019-02-22T12:20:59.694Z,18.17
2019-02-22T12:24:00.712Z,17.97
2019-02-22T12:27:01.128Z,17.33
2019-02-22T12:30:02.015Z,18.57
2019-02-22T12:33:02.945Z,18.17
2019-02-22T12:36:03.775Z,17.00
2019-02-22T12:39:05.360Z,16.20
2019-02-22T12:42:05.916Z,15.70
2019-02-22T12:45:06.307Z,14.60
2019-02-22T12:48:07.540Z,15.13
2019-02-22T12:51:08.205Z,15.73
2019-02-22T12:54:08.723Z,16.93
2019-02-22T12:57:09.085Z,15.90
2019-02-22T13:00:10.250Z,16.73
2019-02-22T13:03:10.614Z,17.50
2019-02-22T13:06:10.873Z,16.47
2019-02-22T13:09:11.344Z,19.10
2019-02-22T13:12:14.202Z,17.77
2019-02-22T13:15:14.850Z,19.33
2019-02-22T13:18:15.220Z,21.67
2019-02-22T13:21:15.522Z,20.67
2019-02-22T13:24:16.466Z,20.47
2019-02-22T13:27:16.817Z,20.83
2019-02-22T13:30:17.916Z,20.73
2019-02-22T13:33:18.712Z,22.90
2019-02-22T13:36:19.210Z,20.37
2019-02-22T13:39:19.537Z,21.43
2019-02-22T13:42:19.838Z,20.40
2019-02-22T13:45:26.540Z,20.17
2019-02-22T13:48:23.607Z,20.30
2019-02-22T13:51:24.298Z,21.47
2019-02-22T13:54:25.466Z,19.23
2019-02-22T13:57:26.556Z,18.67
2019-02-22T14:00:28.172Z,18.12
2019-02-22T14:03:28.973Z,16.55
2019-02-22T14:06:30.648Z,14.13
2019-02-22T14:09:31.826Z,14.25
2019-02-22T14:12:32.946Z,16.10
2019-02-22T14:15:38.139Z,14.83
2019-02-22T14:18:36.085Z,15.73
2019-02-22T14:21:37.098Z,17.03
2019-02-22T14:24:38.289Z,16.83
2019-02-22T14:27:39.639Z,23.77
2019-02-22T14:30:40.903Z,21.83
2019-02-22T14:33:41.246Z,59.27
2019-02-22T14:36:41.556Z,54.00
2019-02-22T14:39:41.853Z,18.63
2019-02-22T14:42:42.527Z,17.43
2019-02-22T14:45:49.245Z,19.53
2019-02-22T14:48:46.445Z,17.45
2019-02-22T14:51:47.333Z,13.50
2019-02-22T14:54:47.678Z,14.83
2019-02-22T14:57:48.281Z,13.00
2019-02-22T15:00:49.450Z,16.70
2019-02-22T15:03:50.224Z,13.57
2019-02-22T15:06:50.682Z,16.63
2019-02-22T15:09:51.230Z,17.70
2019-02-22T15:12:51.765Z,14.17
2019-02-22T15:16:11.399Z,27.33
2019-02-22T15:19:17.130Z,15.37
2019-02-22T15:22:17.512Z,15.63
2019-02-22T15:25:18.795Z,13.90
2019-02-22T15:28:20.337Z,13.90
2019-02-22T15:31:08.962Z,13.67
2019-02-22T15:34:17.044Z,14.17
2019-02-22T15:37:18.284Z,17.07
2019-02-22T15:40:18.635Z,15.10
2019-02-22T15:43:19.371Z,16.33
2019-02-22T15:46:19.911Z,14.40
2019-02-22T15:49:20.618Z,15.07
2019-02-22T15:52:21.825Z,15.33
2019-02-22T15:55:22.853Z,14.63
2019-02-22T15:58:24.114Z,12.67
2019-02-22T16:01:24.624Z,16.23
2019-02-22T16:07:44.682Z,12.60
2019-02-22T16:10:42.419Z,11.50
2019-02-22T16:13:43.410Z,10.97
2019-02-22T16:16:43.922Z,13.70
2019-02-22T16:19:44.643Z,11.20
2019-02-22T16:22:45.839Z,10.80
2019-02-22T16:25:46.265Z,11.43
2019-02-22T16:28:47.008Z,11.87
2019-02-22T16:31:47.619Z,12.83
2019-02-22T16:34:48.506Z,12.57
2019-02-22T16:37:48.813Z,12.77
2019-02-22T16:40:49.497Z,12.93
2019-02-22T16:43:50.247Z,14.87
2019-02-22T16:46:50.791Z,15.10
2019-02-22T16:49:51.773Z,14.73
2019-02-22T16:52:53.127Z,24.90
2019-02-22T16:55:54.363Z,19.13
2019-02-22T16:58:55.198Z,19.77
2019-02-22T17:01:55.869Z,17.17
2019-02-22T17:04:56.089Z,17.70
2019-02-22T17:07:56.839Z,18.67
2019-02-22T17:10:57.588Z,17.80
2019-02-22T17:13:58.084Z,18.17
2019-02-22T17:16:58.782Z,17.77
2019-02-22T17:20:00.013Z,16.40
2019-02-22T17:23:00.726Z,17.20
2019-02-22T17:26:01.031Z,16.63
2019-02-22T17:29:02.369Z,16.47
2019-02-22T17:32:03.083Z,19.17
2019-02-22T17:35:03.506Z,18.97
2019-02-22T17:38:03.903Z,18.63
2019-02-22T17:41:05.333Z,12.93
2019-02-22T17:44:06.242Z,19.73
2019-02-22T17:47:06.727Z,18.33
2019-02-22T17:50:07.257Z,15.37
2019-02-22T17:52:57.559Z,17.27
2019-02-22T17:55:44.790Z,19.77
2019-02-22T17:58:33.733Z,20.53
2019-02-22T18:01:21.170Z,21.00
2019-02-22T18:04:08.142Z,23.77
2019-02-22T18:06:55.211Z,44.53
2019-02-22T18:09:42.657Z,33.73
2019-02-22T18:12:30.005Z,52.53
2019-02-22T18:15:17.920Z,19.40
2019-02-22T18:18:05.348Z,20.10
2019-02-22T18:20:52.746Z,16.43
2019-02-22T18:23:39.892Z,20.53
2019-02-22T18:26:27.086Z,19.33
2019-02-22T18:29:14.091Z,34.73
2019-02-22T18:32:01.466Z,23.87
2019-02-22T18:34:48.450Z,26.77
2019-02-22T18:37:35.876Z,21.30
2019-02-22T18:40:23.530Z,20.43
2019-02-22T18:43:10.229Z,24.97
2019-02-22T18:45:57.674Z,24.27
2019-02-22T18:48:44.982Z,23.53
2019-02-22T18:51:32.202Z,23.03
2019-02-22T18:54:19.494Z,23.07
2019-02-22T18:57:06.923Z,22.43
2019-02-22T18:59:54.139Z,22.77
2019-02-22T19:02:40.884Z,21.03
2019-02-22T19:05:28.288Z,22.57
2019-02-22T19:08:15.575Z,22.10
2019-02-22T19:11:02.592Z,21.60
2019-02-22T19:13:49.603Z,21.20
2019-02-22T19:16:36.646Z,18.40
2019-02-22T19:19:23.609Z,19.83
2019-02-22T19:22:10.889Z,25.17
2019-02-22T19:24:57.843Z,25.70
2019-02-22T19:27:46.459Z,22.97
2019-02-22T19:30:33.193Z,28.87
2019-02-22T19:33:20.114Z,28.47
2019-02-22T19:36:07.125Z,26.07
2019-02-22T19:38:54.253Z,28.50
2019-02-22T19:41:41.696Z,28.17
2019-02-22T19:44:28.705Z,28.33
2019-02-22T19:47:15.910Z,28.97
2019-02-22T19:50:04.017Z,25.37
2019-02-22T19:52:51.193Z,28.13
2019-02-22T19:55:38.211Z,30.13
2019-02-22T19:58:25.429Z,58.87
2019-02-22T20:01:12.588Z,51.07
2019-02-22T20:03:59.849Z,39.30
2019-02-22T20:06:47.073Z,41.43
2019-02-22T20:09:34.166Z,30.53
2019-02-22T20:12:21.172Z,32.30
2019-02-22T20:15:11.338Z,32.83
2019-02-22T20:17:58.150Z,32.20
2019-02-22T20:20:45.184Z,28.67
2019-02-22T20:23:32.831Z,29.33
2019-02-22T20:26:20.579Z,30.12
2019-02-22T20:29:07.929Z,27.50
2019-02-22T20:31:55.365Z,27.33
2019-02-22T20:34:42.793Z,26.37
2019-02-22T20:37:29.688Z,23.77
2019-02-22T20:40:16.979Z,19.40
2019-02-22T20:43:04.132Z,19.60
2019-02-22T20:45:51.719Z,19.47
2019-02-22T20:48:39.217Z,18.83
2019-02-22T20:51:26.926Z,17.90
2019-02-22T20:54:14.350Z,17.67
2019-02-22T20:57:02.199Z,17.27
2019-02-22T20:59:49.627Z,17.37
2019-02-22T21:02:37.245Z,18.00
2019-02-22T21:05:24.522Z,16.30
2019-02-22T21:08:11.942Z,20.93
2019-02-22T21:10:59.580Z,17.48
2019-02-22T21:13:47.198Z,17.37
2019-02-22T21:16:34.830Z,17.77
2019-02-22T21:19:22.191Z,18.47
2019-02-22T21:22:09.362Z,17.70
2019-02-22T21:24:56.389Z,19.13
2019-02-22T21:27:43.682Z,16.53
2019-02-22T21:30:31.500Z,19.48
2019-02-22T21:33:18.878Z,18.27
2019-02-22T21:36:06.298Z,17.50
2019-02-22T21:38:53.698Z,23.80
2019-02-22T21:41:40.979Z,26.60
2019-02-22T21:44:27.961Z,26.03
2019-02-22T21:47:15.199Z,23.83
2019-02-22T21:50:03.116Z,20.47
2019-02-22T21:52:50.444Z,21.83
2019-02-22T21:55:38.192Z,20.67
2019-02-22T21:58:25.619Z,18.40
2019-02-22T22:01:12.997Z,15.68
2019-02-22T22:04:00.386Z,19.77
2019-02-22T22:06:47.199Z,19.20
2019-02-22T22:09:34.722Z,22.33
2019-02-22T22:12:22.390Z,22.20
2019-02-22T22:15:11.746Z,23.45
2019-02-22T22:17:59.458Z,26.03
2019-02-22T22:20:46.901Z,23.92
2019-02-22T22:23:34.166Z,29.30
2019-02-22T22:26:21.478Z,27.07
2019-02-22T22:29:09.154Z,19.57
2019-02-22T22:31:56.414Z,18.70
2019-02-22T22:34:43.892Z,18.30
2019-02-22T22:37:31.022Z,17.03
2019-02-22T22:40:18.239Z,19.53
2019-02-22T22:43:05.953Z,19.75
2019-02-22T22:45:53.136Z,19.10
2019-02-22T22:48:50.197Z,19.33
2019-02-22T22:51:29.480Z,18.67
2019-02-22T22:54:16.780Z,18.67
2019-02-22T22:57:04.614Z,19.62
2019-02-22T22:59:52.443Z,20.73
2019-02-22T23:02:40.065Z,21.25
2019-02-22T23:05:27.386Z,21.13
2019-02-22T23:08:14.840Z,19.60
2019-02-22T23:11:02.870Z,18.80
2019-02-22T23:13:50.156Z,17.97
2019-02-22T23:16:37.514Z,16.80
2019-02-22T23:19:24.888Z,21.50
2019-02-22T23:22:12.540Z,18.40
2019-02-22T23:24:59.646Z,19.67
2019-02-22T23:27:46.949Z,18.40
2019-02-22T23:30:34.943Z,19.57
2019-02-22T23:33:22.534Z,21.68
2019-02-22T23:36:10.052Z,20.63
2019-02-22T23:38:56.854Z,23.00
2019-02-22T23:41:44.298Z,20.62
2019-02-22T23:44:31.894Z,19.57
2019-02-22T23:47:19.178Z,21.10
2019-02-22T23:50:07.952Z,25.17
2019-02-22T23:52:55.402Z,24.75
2019-02-22T23:55:42.439Z,18.47
2019-02-22T23:58:29.695Z,20.53
